CYYR

Goose Bay Airport

Goose Bay, Canada
METAR CYYR 231600Z 25020G26KT 15SM DRSN FEW032 FEW210 M14/M23 A3025 RMK SC1CI1 SLP250
Observed Flight Rules
Feb-23 @ 16:00 UTC (37 minutes ago) Visual Flight Rules
Wind Visibility Clouds Conditions
250° at 20 knots
 Gusting to 26 knots
15 miles
  • Few at 3,200' AGL
  • Few at 21,000' AGL
  • Low drifting
  • Snow
Temperatures Readings
Current -14°C / 7°F
Dewpoint -23°C / -9°F
Humidity 47%
Altimeter 30.25" Hg
Pressure 1025 hPa
Elevation 49
METAR CYYR 231600Z 25020G26KT 15SM DRSN FEW032 FEW210 M14/M23 A3025 RMK SC1CI1 SLP250
Observed Flight Rules
Feb-23 @ 16:00 UTC
(37 minutes ago)
VFR
Wind Visibility
250° at 20 knots
 Gusting to 26 knots
15 miles
Clouds
  • Few at 3,200' AGL
  • Few at 21,000' AGL
Conditions
  • Low drifting
  • Snow
Temperature Dewpoint
-14°C / 7°F -23°C / -9°F
Humidity Altimeter Pressure
47% 30.25" Hg 1025 hPa